Waterville, New York
Current Conditions -  °F | °C
As of 10:53 PM on Saturday 25 Oct 2014 (Local Time) from KRME Reporting Station
Haze Haze  
Wind Chill: 48°   Ceiling: 9500
Heat Index: 48°   Visibility: 2.5mi
Dew Point: 47°   Wind: 3mph
Humidity: 96%   Direction: 60°ENE
Pressure: 29.56"   Gusts: NA
Location:  42.93°N, 75.38°W
Report Text: KRME 260253Z AUTO 06003KT 2 1/2SM BR FEW048 SCT080 BKN095 09/08 A2956 RMK AO2 LTG DSNT NW SLP010 T00890083 56009
Loading
Personal Weather Stations






























Interactive Weather Map
Tropical Storm Tracking
New forecast layout! Learn more

10-Day Weather Forecast

Advertisements
Track Severe Weather on mobile